Time;durP1;ratioP1;P1;durP2;ratioP2;P2;SDS_P1;SDS_P2;PMS_P1;PMS_P2;Temp;Humidity;BMP_temperature;BMP_pressure;BME280_temperature;BME280_humidity;BME280_pressure;Samples;Min_cycle;Max_cycle;Signal;HPM_P1;HPM_P2
2023/05/10 00:01:01;;;;;;;0.90;0.80;;;13.40;99.90;;;;;;5071731;28;20814;-68
2023/05/10 00:03:27;;;;;;;1.73;1.00;;;13.40;99.90;;;;;;5071135;28;20462;-67
2023/05/10 00:05:55;;;;;;;0.93;0.80;;;13.40;99.90;;;;;;5071723;28;20493;-68
2023/05/10 00:08:23;;;;;;;1.10;0.90;;;13.40;99.90;;;;;;5071559;28;20459;-68
2023/05/10 00:10:50;;;;;;;0.80;0.70;;;13.40;99.90;;;;;;5070879;28;20465;-68
2023/05/10 00:13:16;;;;;;;1.63;1.53;;;13.40;99.90;;;;;;5071232;28;20496;-69
2023/05/10 00:15:43;;;;;;;0.80;0.70;;;13.40;99.90;;;;;;5071500;28;20497;-68
2023/05/10 00:18:10;;;;;;;0.97;0.80;;;13.40;99.90;;;;;;5071376;28;20528;-68
2023/05/10 00:20:36;;;;;;;0.90;0.70;;;13.30;99.90;;;;;;5071255;28;20462;-68
2023/05/10 00:23:03;;;;;;;0.80;0.70;;;13.30;99.90;;;;;;5070675;28;20462;-67
2023/05/10 00:25:31;;;;;;;0.80;0.60;;;13.20;99.90;;;;;;5170291;23;20206;-69
2023/05/10 00:27:58;;;;;;;0.90;0.70;;;13.20;99.90;;;;;;5048422;28;20462;-68
2023/05/10 00:30:25;;;;;;;0.70;0.60;;;13.10;99.90;;;;;;5048776;28;20296;-68
2023/05/10 00:32:52;;;;;;;3.00;0.73;;;13.10;99.90;;;;;;5051280;28;20208;-69
2023/05/10 00:35:18;;;;;;;1.33;0.90;;;13.00;99.90;;;;;;5050242;28;20455;-69
2023/05/10 00:37:45;;;;;;;0.90;0.70;;;13.00;99.90;;;;;;5050341;28;20470;-68
2023/05/10 00:40:12;;;;;;;0.80;0.70;;;12.90;99.90;;;;;;5050994;28;20959;-68
2023/05/10 00:42:40;;;;;;;0.80;0.60;;;12.90;99.90;;;;;;5051500;28;20209;-68
2023/05/10 00:45:08;;;;;;;0.90;0.70;;;12.90;99.90;;;;;;5070646;28;20527;-68
2023/05/10 00:47:35;;;;;;;0.80;0.60;;;12.90;99.90;;;;;;5071327;28;20484;-68
2023/05/10 00:50:03;;;;;;;0.77;0.70;;;12.90;99.90;;;;;;5059808;28;20487;-68
2023/05/10 00:52:30;;;;;;;0.80;0.60;;;12.90;99.90;;;;;;5051047;28;20208;-68
2023/05/10 00:54:58;;;;;;;0.80;0.70;;;12.80;99.90;;;;;;5050376;28;20198;-68
2023/05/10 00:57:25;;;;;;;0.80;0.70;;;12.80;99.90;;;;;;5051392;28;20484;-69
2023/05/10 00:59:53;;;;;;;0.80;0.60;;;12.70;99.90;;;;;;5051034;28;20467;-68
2023/05/10 01:02:20;;;;;;;0.70;0.60;;;12.70;99.90;;;;;;5051051;28;20943;-68
2023/05/10 01:04:47;;;;;;;0.80;0.60;;;12.70;99.90;;;;;;5050435;28;20225;-68
2023/05/10 01:07:13;;;;;;;0.90;0.70;;;12.70;99.90;;;;;;5063083;28;20486;-69
2023/05/10 01:09:40;;;;;;;0.80;0.60;;;12.70;99.90;;;;;;5054622;28;20474;-68
2023/05/10 01:12:07;;;;;;;0.98;0.80;;;12.70;99.90;;;;;;5050594;28;20513;-68
2023/05/10 01:14:36;;;;;;;0.80;0.70;;;12.60;99.90;;;;;;5050402;28;20200;-69
2023/05/10 01:17:05;;;;;;;0.90;0.70;;;12.60;99.90;;;;;;5050613;28;20248;-68
2023/05/10 01:19:34;;;;;;;1.37;0.77;;;12.60;99.90;;;;;;5050411;28;20208;-69
2023/05/10 01:22:10;;;;;;;0.80;0.60;;;12.60;99.90;;;;;;5050412;28;20478;-68
2023/05/10 01:24:57;;;;;;;0.93;0.70;;;12.60;99.90;;;;;;5049700;28;20328;-68
2023/05/10 01:27:42;;;;;;;1.00;0.70;;;12.60;99.90;;;;;;5050258;28;20522;-68
2023/05/10 01:30:40;;;;;;;1.70;1.23;;;12.60;99.90;;;;;;5050208;28;20459;-68
2023/05/10 01:33:15;;;;;;;0.80;0.70;;;12.60;99.90;;;;;;5000164;28;20462;-68
2023/05/10 01:35:48;;;;;;;0.80;0.70;;;12.60;99.90;;;;;;5050383;28;20592;-69
2023/05/10 01:38:20;;;;;;;0.98;0.70;;;12.60;99.90;;;;;;5050401;28;20544;-68
2023/05/10 01:40:59;;;;;;;0.95;0.77;;;12.60;99.90;;;;;;5049299;28;20208;-68
2023/05/10 01:43:31;;;;;;;1.20;0.90;;;12.60;99.90;;;;;;5050110;28;20854;-68
2023/05/10 01:46:10;;;;;;;0.80;0.70;;;12.50;99.90;;;;;;5049850;28;20570;-68
2023/05/10 01:48:41;;;;;;;0.70;0.60;;;12.50;99.90;;;;;;5049755;28;20209;-68
2023/05/10 01:51:08;;;;;;;0.70;0.60;;;12.50;99.90;;;;;;5048435;28;20839;-69
2023/05/10 01:53:39;;;;;;;0.80;0.70;;;12.50;99.90;;;;;;5049790;28;20459;-68
2023/05/10 01:56:08;;;;;;;0.80;0.70;;;12.40;99.90;;;;;;5049575;28;20221;-68
2023/05/10 01:58:37;;;;;;;0.90;0.80;;;12.40;99.90;;;;;;5050107;28;20231;-68
2023/05/10 02:01:06;;;;;;;0.90;0.75;;;12.40;99.90;;;;;;5049627;28;20621;-68
2023/05/10 02:03:36;;;;;;;0.80;0.70;;;12.40;99.90;;;;;;5049867;28;20205;-68
2023/05/10 02:06:05;;;;;;;0.90;0.80;;;12.40;99.90;;;;;;5049464;28;20642;-68
2023/05/10 02:08:33;;;;;;;0.80;0.60;;;12.30;99.90;;;;;;5049848;28;20578;-67
2023/05/10 02:11:01;;;;;;;0.80;0.60;;;12.30;99.90;;;;;;5049557;28;20205;-68
2023/05/10 02:13:29;;;;;;;0.80;0.70;;;12.20;99.90;;;;;;5049872;28;20204;-68
2023/05/10 02:15:57;;;;;;;0.80;0.70;;;12.20;99.90;;;;;;5049552;28;20275;-69
2023/05/10 02:18:26;;;;;;;0.90;0.70;;;12.20;99.90;;;;;;5049968;28;20463;-69
2023/05/10 02:20:55;;;;;;;0.80;0.70;;;12.20;99.90;;;;;;5049176;28;20470;-68
2023/05/10 02:23:26;;;;;;;0.80;0.70;;;12.10;99.90;;;;;;5049501;28;20966;-69
2023/05/10 02:25:54;;;;;;;0.80;0.75;;;12.10;99.90;;;;;;5049429;28;20765;-68
2023/05/10 02:28:23;;;;;;;1.00;0.90;;;12.10;99.90;;;;;;5050165;28;20626;-68
2023/05/10 02:30:50;;;;;;;1.00;0.85;;;12.10;99.90;;;;;;5049326;28;20208;-68
2023/05/10 02:33:17;;;;;;;1.48;1.02;;;12.00;99.90;;;;;;5049769;28;20198;-68
2023/05/10 02:35:45;;;;;;;0.80;0.70;;;12.00;99.90;;;;;;5049752;28;20228;-68
2023/05/10 02:38:14;;;;;;;2.30;0.90;;;12.00;99.90;;;;;;5049836;28;20464;-68
2023/05/10 02:40:43;;;;;;;0.85;0.80;;;12.10;99.90;;;;;;5049529;28;20201;-68
2023/05/10 02:43:13;;;;;;;1.05;0.90;;;12.00;99.90;;;;;;5049285;28;20213;-69
2023/05/10 02:45:41;;;;;;;0.90;0.70;;;12.10;99.90;;;;;;5049408;28;20225;-68
2023/05/10 02:48:08;;;;;;;0.80;0.77;;;12.10;99.90;;;;;;5049835;28;20209;-68
2023/05/10 02:50:36;;;;;;;1.00;0.70;;;12.00;99.90;;;;;;5049288;28;20207;-68
2023/05/10 02:53:11;;;;;;;1.10;0.90;;;12.10;99.90;;;;;;5049503;28;20201;-68
2023/05/10 02:55:41;;;;;;;1.52;1.00;;;12.10;99.90;;;;;;5049761;28;20201;-68
2023/05/10 02:58:09;;;;;;;0.90;0.77;;;12.10;99.90;;;;;;5049431;28;20571;-68
2023/05/10 03:00:36;;;;;;;0.80;0.70;;;12.10;99.90;;;;;;5051590;28;20205;-68
2023/05/10 03:03:03;;;;;;;0.98;0.88;;;12.10;99.90;;;;;;5052824;28;20231;-68
2023/05/10 03:05:30;;;;;;;1.38;1.10;;;12.10;99.90;;;;;;5053157;28;20213;-68
2023/05/10 03:07:57;;;;;;;0.90;0.80;;;12.10;99.90;;;;;;5052993;28;20678;-68
2023/05/10 03:10:28;;;;;;;1.80;0.80;;;12.00;99.90;;;;;;5052966;28;20577;-68
2023/05/10 03:13:08;;;;;;;1.00;0.90;;;12.10;99.90;;;;;;5052784;28;20201;-68
2023/05/10 03:15:43;;;;;;;0.80;0.80;;;12.00;99.90;;;;;;5053094;28;20197;-69
2023/05/10 03:18:12;;;;;;;0.98;0.88;;;12.00;99.90;;;;;;5053244;28;20593;-68
2023/05/10 03:20:43;;;;;;;1.40;1.15;;;12.10;99.90;;;;;;5052650;28;20205;-68
2023/05/10 03:23:21;;;;;;;2.47;1.00;;;12.10;99.90;;;;;;5052355;28;20208;-68
2023/05/10 03:25:50;;;;;;;1.20;0.90;;;12.10;99.90;;;;;;5052400;28;20367;-68
2023/05/10 03:28:18;;;;;;;1.17;1.05;;;12.10;99.90;;;;;;5052870;28;20258;-69
2023/05/10 03:30:46;;;;;;;2.08;1.08;;;12.10;99.90;;;;;;5044923;28;20232;-68
2023/05/10 03:33:14;;;;;;;2.28;0.85;;;12.10;99.90;;;;;;5049422;28;20197;-68
2023/05/10 03:35:40;;;;;;;1.00;0.88;;;12.10;99.90;;;;;;5049516;28;20603;-68
2023/05/10 03:38:07;;;;;;;1.58;1.15;;;12.00;99.90;;;;;;5068431;28;20208;-68
2023/05/10 03:40:34;;;;;;;1.05;0.88;;;12.00;99.90;;;;;;5069787;28;20205;-68
2023/05/10 03:43:00;;;;;;;1.00;0.90;;;12.00;99.90;;;;;;5069914;28;20205;-68
2023/05/10 03:45:28;;;;;;;1.75;1.35;;;12.00;99.90;;;;;;5070207;28;20781;-68
2023/05/10 03:47:56;;;;;;;1.00;0.90;;;12.00;99.90;;;;;;5072156;28;20208;-68
2023/05/10 03:50:23;;;;;;;1.10;1.00;;;12.00;99.90;;;;;;5068250;28;20280;-68
2023/05/10 03:52:50;;;;;;;1.15;1.05;;;12.00;99.90;;;;;;5052269;28;20212;-68
2023/05/10 03:55:17;;;;;;;1.20;1.00;;;12.00;99.90;;;;;;5046319;28;20193;-67
2023/05/10 03:57:43;;;;;;;1.27;1.10;;;12.00;99.90;;;;;;5072266;28;20315;-68
2023/05/10 04:00:11;;;;;;;1.25;1.15;;;12.00;99.90;;;;;;5071430;28;20196;-68
2023/05/10 04:02:38;;;;;;;1.13;1.00;;;12.00;99.90;;;;;;5071264;28;20210;-67
2023/05/10 04:05:06;;;;;;;1.20;1.10;;;12.00;99.90;;;;;;5055773;28;20274;-68
2023/05/10 04:07:33;;;;;;;1.08;0.98;;;11.90;99.90;;;;;;5063946;28;20224;-68
2023/05/10 04:10:00;;;;;;;1.17;1.00;;;12.00;99.90;;;;;;5048455;28;20209;-67
2023/05/10 04:17:30;;;;;;;1.10;1.00;;;12.00;99.90;;;;;;5051042;28;20260;-69
2023/05/10 04:19:57;;;;;;;1.00;0.82;;;12.00;99.90;;;;;;5052582;28;20495;-68
2023/05/10 04:22:25;;;;;;;1.75;1.10;;;12.00;99.90;;;;;;5052560;28;20197;-70
2023/05/10 04:24:51;;;;;;;1.00;0.90;;;12.00;99.90;;;;;;5051787;28;20622;-70
2023/05/10 04:27:18;;;;;;;1.20;1.10;;;12.00;99.90;;;;;;5052028;28;20224;-70
2023/05/10 04:29:45;;;;;;;0.90;0.80;;;12.00;99.90;;;;;;5052441;28;20243;-70
2023/05/10 04:32:11;;;;;;;1.70;1.10;;;12.00;99.90;;;;;;5052110;28;20202;-71
2023/05/10 04:34:38;;;;;;;1.00;0.90;;;11.90;99.90;;;;;;5052272;28;20618;-70
2023/05/10 04:37:05;;;;;;;1.80;1.30;;;11.90;99.90;;;;;;5051921;28;20591;-70
2023/05/10 04:39:33;;;;;;;1.33;1.10;;;12.00;99.90;;;;;;5052354;28;20220;-70
2023/05/10 04:41:59;;;;;;;2.20;1.05;;;12.00;99.90;;;;;;5051897;28;20271;-70
2023/05/10 04:44:26;;;;;;;1.23;1.13;;;11.90;99.90;;;;;;5052006;28;20197;-69
2023/05/10 04:46:53;;;;;;;1.30;1.20;;;11.90;99.90;;;;;;5051708;28;20564;-69
2023/05/10 04:49:19;;;;;;;1.15;1.05;;;11.90;99.90;;;;;;5051069;28;20205;-68
2023/05/10 04:51:46;;;;;;;1.50;1.20;;;11.90;99.90;;;;;;5051206;28;20208;-69
2023/05/10 04:54:13;;;;;;;1.40;1.30;;;11.90;99.90;;;;;;5051141;28;20235;-69
2023/05/10 04:56:41;;;;;;;3.85;1.52;;;11.90;99.90;;;;;;5051534;28;20217;-69
2023/05/10 04:59:08;;;;;;;1.50;1.20;;;12.00;99.90;;;;;;5051253;28;20197;-69
2023/05/10 05:01:34;;;;;;;1.25;0.88;;;12.00;99.90;;;;;;5051277;28;20224;-70
2023/05/10 05:04:01;;;;;;;1.25;1.15;;;12.10;99.90;;;;;;5050423;28;20262;-69
2023/05/10 05:06:28;;;;;;;2.00;1.00;;;12.20;99.90;;;;;;5051070;28;20343;-69
2023/05/10 05:08:54;;;;;;;1.20;1.10;;;12.20;99.90;;;;;;5050968;28;20212;-69
2023/05/10 05:11:21;;;;;;;1.23;1.13;;;12.30;99.90;;;;;;5051221;28;20464;-69
2023/05/10 05:13:49;;;;;;;1.52;1.23;;;12.40;99.90;;;;;;5050534;28;20288;-69
2023/05/10 05:16:16;;;;;;;1.77;1.15;;;12.40;99.90;;;;;;5051068;28;20225;-69
2023/05/10 05:18:43;;;;;;;1.30;1.02;;;12.50;99.90;;;;;;5050551;28;20225;-69
2023/05/10 05:21:20;;;;;;;2.93;1.80;;;12.50;99.90;;;;;;5050881;28;20201;-69
2023/05/10 05:23:46;;;;;;;1.17;1.00;;;12.50;99.90;;;;;;5065295;28;20584;-68
2023/05/10 05:26:14;;;;;;;1.10;0.93;;;12.50;99.90;;;;;;5070866;28;20220;-68
2023/05/10 05:28:41;;;;;;;1.33;1.23;;;12.50;99.90;;;;;;5071784;28;20903;-71
2023/05/10 05:31:09;;;;;;;1.60;1.30;;;12.60;99.90;;;;;;5071941;28;20517;-70
2023/05/10 05:33:36;;;;;;;1.30;1.20;;;12.60;99.90;;;;;;5071266;28;20250;-72
2023/05/10 05:36:04;;;;;;;1.45;1.23;;;12.60;99.90;;;;;;5063584;28;20497;-70
2023/05/10 05:38:30;;;;;;;1.10;1.00;;;12.60;99.90;;;;;;5048635;28;20193;-69
2023/05/10 05:40:57;;;;;;;1.27;1.08;;;12.60;99.90;;;;;;5047301;28;20463;-70
2023/05/10 05:43:24;;;;;;;1.27;1.17;;;12.70;99.90;;;;;;5048667;28;20214;-69
2023/05/10 05:45:53;;;;;;;1.08;0.98;;;12.70;99.90;;;;;;5050777;28;20724;-71
2023/05/10 05:48:21;;;;;;;1.98;1.17;;;12.70;99.90;;;;;;5062502;28;20200;-72
2023/05/10 05:50:47;;;;;;;1.00;0.90;;;12.70;99.90;;;;;;5070775;28;20204;-71
2023/05/10 05:53:14;;;;;;;1.40;1.30;;;12.80;99.90;;;;;;5070980;28;20574;-70
2023/05/10 05:55:41;;;;;;;1.20;1.10;;;12.80;99.90;;;;;;5071117;28;20215;-70
2023/05/10 05:58:08;;;;;;;1.13;1.03;;;12.90;99.90;;;;;;5062158;28;20827;-69
2023/05/10 06:00:35;;;;;;;1.38;1.27;;;12.90;99.90;;;;;;5050483;28;20463;-69
2023/05/10 06:03:01;;;;;;;1.20;1.08;;;13.00;99.90;;;;;;5058233;28;20211;-69
2023/05/10 06:05:29;;;;;;;1.20;1.07;;;13.10;99.90;;;;;;5069779;28;20204;-69
2023/05/10 06:07:56;;;;;;;1.10;1.00;;;13.10;99.90;;;;;;5071179;28;20463;-70
2023/05/10 06:10:25;;;;;;;1.00;0.90;;;13.20;99.90;;;;;;5071834;28;20455;-69
2023/05/10 06:12:52;;;;;;;1.30;1.20;;;13.30;99.90;;;;;;5071404;28;20885;-71
2023/05/10 06:15:19;;;;;;;1.33;1.23;;;13.30;99.90;;;;;;5052393;28;20220;-71
2023/05/10 06:17:47;;;;;;;1.60;1.13;;;13.30;99.90;;;;;;5051563;28;20462;-71
2023/05/10 06:20:14;;;;;;;1.73;1.20;;;13.40;99.90;;;;;;5052595;28;20464;-72
2023/05/10 06:22:42;;;;;;;1.30;1.20;;;13.40;99.90;;;;;;5066913;28;20459;-72
2023/05/10 06:25:11;;;;;;;1.37;1.10;;;13.50;99.90;;;;;;5071318;28;20465;-70
2023/05/10 06:27:38;;;;;;;1.00;0.90;;;13.50;99.90;;;;;;5064006;23;20503;-70
2023/05/10 06:30:06;;;;;;;1.50;1.17;;;13.50;99.90;;;;;;5049989;28;20467;-71
2023/05/10 06:32:32;;;;;;;2.53;1.30;;;13.50;99.90;;;;;;5049750;28;20466;-69
2023/05/10 06:34:59;;;;;;;1.40;1.30;;;13.50;99.90;;;;;;5052544;28;20460;-69
2023/05/10 06:37:26;;;;;;;1.70;1.60;;;13.50;99.90;;;;;;5053641;28;20467;-70
2023/05/10 06:39:54;;;;;;;1.50;1.20;;;13.50;99.90;;;;;;5053312;28;20459;-70
2023/05/10 06:42:20;;;;;;;1.93;1.33;;;13.60;99.90;;;;;;5053336;28;20946;-69
2023/05/10 06:44:47;;;;;;;1.53;1.40;;;13.60;99.90;;;;;;5059240;28;20458;-70
2023/05/10 06:47:14;;;;;;;1.73;1.30;;;13.60;99.90;;;;;;5073135;28;20547;-68
2023/05/10 06:49:40;;;;;;;1.13;1.03;;;13.60;99.90;;;;;;5068849;28;20466;-67
2023/05/10 06:52:07;;;;;;;1.30;1.20;;;13.60;99.90;;;;;;5039679;28;20486;-68
2023/05/10 06:54:34;;;;;;;1.13;1.03;;;13.60;99.90;;;;;;5039372;28;20460;-68
2023/05/10 06:57:02;;;;;;;1.53;1.10;;;13.60;99.90;;;;;;5057568;28;20479;-70
2023/05/10 06:59:29;;;;;;;1.73;1.30;;;13.60;99.90;;;;;;5053396;28;20804;-70
2023/05/10 07:01:56;;;;;;;1.10;1.00;;;13.60;99.90;;;;;;5052992;28;20470;-72
2023/05/10 07:04:22;;;;;;;1.40;1.30;;;13.70;99.90;;;;;;5061514;28;20466;-68
2023/05/10 07:06:50;;;;;;;1.57;1.27;;;13.70;99.90;;;;;;5067467;28;20486;-72
2023/05/10 07:09:17;;;;;;;2.80;1.30;;;13.70;99.90;;;;;;5073085;28;20462;-70
2023/05/10 07:11:43;;;;;;;3.70;1.10;;;13.70;99.90;;;;;;5067801;28;20463;-68
2023/05/10 07:14:11;;;;;;;1.40;1.30;;;13.80;99.90;;;;;;5052975;28;20470;-69
2023/05/10 07:16:38;;;;;;;1.20;1.10;;;13.90;99.90;;;;;;5057484;28;20474;-67
2023/05/10 07:19:05;;;;;;;1.53;1.40;;;13.90;99.90;;;;;;5072982;28;20839;-69
2023/05/10 07:21:32;;;;;;;1.23;1.13;;;14.00;99.90;;;;;;5072983;28;20458;-68
2023/05/10 07:23:59;;;;;;;1.50;1.33;;;14.20;99.90;;;;;;5073084;28;20458;-68
2023/05/10 07:26:26;;;;;;;1.87;1.40;;;14.30;99.90;;;;;;5053385;28;20514;-67
2023/05/10 07:28:52;;;;;;;1.37;0.97;;;14.30;99.90;;;;;;5052656;28;21113;-69
2023/05/10 07:31:20;;;;;;;2.13;1.30;;;14.40;99.90;;;;;;5060931;28;20482;-69
2023/05/10 07:33:47;;;;;;;1.13;0.90;;;14.40;99.90;;;;;;5066451;28;20459;-68
2023/05/10 07:36:14;;;;;;;1.97;1.20;;;14.40;99.90;;;;;;5055057;28;20994;-68
2023/05/10 07:38:41;;;;;;;1.30;1.10;;;14.50;99.90;;;;;;5052526;28;20502;-68
2023/05/10 07:41:07;;;;;;;1.10;1.00;;;14.50;99.90;;;;;;5052774;28;20836;-70
2023/05/10 07:43:34;;;;;;;1.40;1.30;;;14.50;99.90;;;;;;5064262;28;20828;-69
2023/05/10 07:46:01;;;;;;;1.17;1.07;;;14.60;99.90;;;;;;5056177;28;20497;-69
2023/05/10 07:48:29;;;;;;;2.17;1.50;;;14.70;99.90;;;;;;5052451;28;20480;-69
2023/05/10 07:50:56;;;;;;;1.77;1.00;;;14.70;99.90;;;;;;5052221;28;20471;-70
2023/05/10 07:53:22;;;;;;;1.40;1.30;;;14.70;99.90;;;;;;5052201;28;20542;-70
2023/05/10 07:55:51;;;;;;;1.10;1.00;;;14.70;99.90;;;;;;5058069;28;20489;-69
2023/05/10 07:58:18;;;;;;;1.10;1.00;;;14.70;99.90;;;;;;5054322;28;20460;-68
2023/05/10 08:00:45;;;;;;;1.23;1.13;;;14.80;99.90;;;;;;5052325;28;20950;-68
2023/05/10 08:03:11;;;;;;;1.67;1.30;;;14.80;99.90;;;;;;5060987;28;20793;-68
2023/05/10 08:05:39;;;;;;;1.37;1.27;;;14.80;99.90;;;;;;5072077;28;20481;-68
2023/05/10 08:08:06;;;;;;;1.20;1.03;;;14.70;99.90;;;;;;5064121;28;20528;-70
2023/05/10 08:10:33;;;;;;;1.20;1.10;;;14.70;99.90;;;;;;5063674;28;20462;-68
2023/05/10 08:13:00;;;;;;;2.00;0.90;;;14.70;99.90;;;;;;5065381;28;20459;-68
2023/05/10 08:15:26;;;;;;;1.40;1.17;;;14.70;99.90;;;;;;5070831;28;20467;-69
2023/05/10 08:17:53;;;;;;;1.30;0.90;;;14.90;99.90;;;;;;5072076;28;20458;-68
2023/05/10 08:20:20;;;;;;;1.30;0.87;;;15.00;99.90;;;;;;5071637;28;20519;-67
2023/05/10 08:22:49;;;;;;;2.20;1.13;;;15.00;99.90;;;;;;5071709;28;20474;-70
2023/05/10 08:25:16;;;;;;;1.00;0.90;;;14.90;99.90;;;;;;5062345;28;20463;-67
2023/05/10 08:27:43;;;;;;;2.07;1.37;;;15.00;99.90;;;;;;5051391;28;20483;-67
2023/05/10 08:30:11;;;;;;;1.10;1.00;;;15.10;99.90;;;;;;5051327;28;20467;-70
2023/05/10 08:32:38;;;;;;;1.10;1.00;;;15.20;99.90;;;;;;5051431;28;20459;-68
2023/05/10 08:35:06;;;;;;;1.03;0.93;;;15.20;99.90;;;;;;5051444;28;20878;-68
2023/05/10 08:37:32;;;;;;;1.53;1.17;;;15.20;99.90;;;;;;5051303;28;20479;-67
2023/05/10 08:40:01;;;;;;;1.30;1.00;;;15.10;99.90;;;;;;5051572;28;20459;-68
2023/05/10 08:42:31;;;;;;;1.90;1.40;;;15.10;99.90;;;;;;5051129;28;20460;-70
2023/05/10 08:44:59;;;;;;;1.10;1.00;;;15.20;99.90;;;;;;5051196;28;20550;-69
2023/05/10 08:47:26;;;;;;;2.07;1.20;;;15.30;99.90;;;;;;5051237;28;20479;-70
2023/05/10 08:49:54;;;;;;;1.33;1.00;;;15.30;99.90;;;;;;5050959;28;20470;-70
2023/05/10 08:52:22;;;;;;;1.00;0.90;;;15.40;99.90;;;;;;5050996;28;20977;-70
2023/05/10 08:54:49;;;;;;;1.30;1.17;;;15.50;99.90;;;;;;5050683;28;20463;-69
2023/05/10 08:57:17;;;;;;;1.00;0.90;;;15.50;99.90;;;;;;5050832;28;20889;-70
2023/05/10 08:59:45;;;;;;;1.20;1.10;;;15.40;99.90;;;;;;5070865;28;20455;-68
2023/05/10 09:02:13;;;;;;;1.00;0.90;;;15.30;99.90;;;;;;5063242;28;20570;-68
2023/05/10 09:04:40;;;;;;;0.90;0.80;;;15.30;99.90;;;;;;5062639;28;20463;-68
2023/05/10 09:07:08;;;;;;;0.97;0.87;;;15.40;99.90;;;;;;5070616;28;20474;-68
2023/05/10 09:09:35;;;;;;;1.03;0.87;;;15.50;99.90;;;;;;5070573;28;20463;-74
2023/05/10 09:12:02;;;;;;;1.37;1.10;;;15.70;99.90;;;;;;5070704;28;20465;-69
2023/05/10 09:14:31;;;;;;;1.10;0.83;;;15.90;99.90;;;;;;5070162;28;20497;-69
2023/05/10 09:16:57;;;;;;;1.00;0.90;;;15.90;99.90;;;;;;5070596;28;20470;-70
2023/05/10 09:19:24;;;;;;;0.87;0.80;;;15.90;99.90;;;;;;5070577;28;20486;-68
2023/05/10 09:21:51;;;;;;;1.00;0.80;;;16.00;99.90;;;;;;5065304;28;20459;-70
2023/05/10 09:24:17;;;;;;;1.50;0.87;;;15.90;99.90;;;;;;5050283;28;20491;-70
2023/05/10 09:26:48;;;;;;;1.20;1.10;;;15.80;99.90;;;;;;5058554;28;20550;-70
2023/05/10 09:29:15;;;;;;;1.13;0.83;;;15.60;99.90;;;;;;5058988;28;20497;-70
2023/05/10 09:31:48;;;;;;;0.90;0.80;;;15.50;99.90;;;;;;5058116;28;20464;-70
2023/05/10 09:34:19;;;;;;;1.20;1.00;;;15.40;99.90;;;;;;5050012;28;20466;-69
2023/05/10 09:36:53;;;;;;;1.33;0.93;;;15.50;99.90;;;;;;5054795;28;20981;-67
2023/05/10 09:39:20;;;;;;;1.00;0.87;;;15.50;99.90;;;;;;5069384;28;20465;-68
2023/05/10 09:41:48;;;;;;;1.47;1.00;;;15.60;99.90;;;;;;5050198;28;20459;-69
2023/05/10 09:44:18;;;;;;;0.80;0.77;;;15.80;99.90;;;;;;5050039;28;20467;-69
2023/05/10 09:46:52;;;;;;;0.90;0.70;;;15.90;99.90;;;;;;5070258;28;20521;-68
2023/05/10 09:49:19;;;;;;;1.67;0.93;;;16.00;99.90;;;;;;5052980;28;20545;-69
2023/05/10 09:51:46;;;;;;;0.90;0.80;;;16.10;99.90;;;;;;5050523;28;20463;-71
2023/05/10 09:54:14;;;;;;;2.07;1.07;;;16.30;99.90;;;;;;5050349;28;20478;-70
2023/05/10 09:56:41;;;;;;;1.50;1.40;;;16.30;99.90;;;;;;5050178;28;21078;-67
2023/05/10 09:59:10;;;;;;;0.90;0.80;;;16.50;99.90;;;;;;5050483;28;20482;-68
2023/05/10 10:01:37;;;;;;;0.80;0.80;;;16.70;99.90;;;;;;5061300;28;20462;-68
2023/05/10 10:04:07;;;;;;;0.80;0.70;;;16.90;99.90;;;;;;5070195;28;20926;-68
2023/05/10 10:06:38;;;;;;;1.10;1.00;;;17.20;99.90;;;;;;5069963;28;20479;-68
2023/05/10 10:09:05;;;;;;;0.93;0.83;;;17.60;99.90;;;;;;5073661;28;20497;-69
2023/05/10 10:11:32;;;;;;;0.90;0.80;;;17.80;99.90;;;;;;5076656;28;20462;-70
2023/05/10 10:13:59;;;;;;;1.87;1.00;;;18.00;99.90;;;;;;5076614;28;20804;-69
2023/05/10 10:16:27;;;;;;;4.73;1.30;;;17.90;99.90;;;;;;5076593;28;20486;-69
2023/05/10 10:18:54;;;;;;;0.90;0.80;;;17.80;99.90;;;;;;5071459;28;20463;-70
2023/05/10 10:21:22;;;;;;;1.50;0.80;;;17.90;99.90;;;;;;5073802;28;20835;-68
2023/05/10 10:23:49;;;;;;;0.97;0.80;;;18.10;99.90;;;;;;5071681;28;20467;-68
2023/05/10 10:26:19;;;;;;;0.80;0.70;;;18.20;99.90;;;;;;5056180;28;20552;-68
2023/05/10 10:28:56;;;;;;;1.60;1.40;;;18.40;99.90;;;;;;5064722;28;20817;-68
2023/05/10 10:31:29;;;;;;;0.87;0.77;;;18.10;99.90;;;;;;5056557;28;20469;-68
2023/05/10 10:34:02;;;;;;;1.10;1.00;;;17.90;99.90;;;;;;5056965;28;20458;-69
2023/05/10 10:36:33;;;;;;;1.00;0.80;;;17.80;99.90;;;;;;5066292;28;20513;-67
2023/05/10 10:39:01;;;;;;;1.10;0.90;;;17.80;99.90;;;;;;5076502;28;20509;-67
2023/05/10 10:41:35;;;;;;;1.03;0.93;;;17.90;99.90;;;;;;5068051;28;20490;-68
2023/05/10 10:44:24;;;;;;;1.00;0.83;;;18.30;99.90;;;;;;5076464;28;20458;-67
2023/05/10 10:47:08;;;;;;;1.00;0.77;;;18.70;99.90;;;;;;5076227;28;20559;-68
2023/05/10 10:49:39;;;;;;;0.90;0.80;;;18.80;99.90;;;;;;5076109;28;20462;-68
2023/05/10 10:52:21;;;;;;;1.17;1.07;;;18.90;99.90;;;;;;5076777;28;20465;-68
2023/05/10 10:54:53;;;;;;;0.80;0.60;;;19.00;99.90;;;;;;5056989;28;20462;-68
2023/05/10 10:57:21;;;;;;;0.90;0.80;;;18.50;99.90;;;;;;5056442;28;20891;-68
2023/05/10 10:59:48;;;;;;;1.37;1.20;;;18.00;99.90;;;;;;5056043;28;20501;-68
2023/05/10 11:02:36;;;;;;;0.90;0.70;;;17.20;99.90;;;;;;5056245;28;20954;-67
2023/05/10 11:05:44;;;;;;;0.90;0.80;;;16.60;99.90;;;;;;5050441;28;20820;-67
2023/05/10 11:08:18;;;;;;;0.97;0.80;;;16.20;99.90;;;;;;5056331;28;20479;-68
2023/05/10 11:11:04;;;;;;;1.20;0.90;;;16.00;99.90;;;;;;5055958;28;20966;-67
2023/05/10 11:13:32;;;;;;;1.57;0.80;;;15.80;99.90;;;;;;5051684;28;20477;-68
2023/05/10 11:16:00;;;;;;;1.00;0.90;;;15.70;99.90;;;;;;5065303;28;20574;-67
2023/05/10 11:18:29;;;;;;;1.37;0.87;;;15.50;99.90;;;;;;5065933;28;20842;-67
2023/05/10 11:20:59;;;;;;;1.20;0.80;;;15.30;99.90;;;;;;5051631;28;20471;-68
2023/05/10 11:23:31;;;;;;;1.37;0.90;;;15.20;99.90;;;;;;5051773;28;21017;-67
2023/05/10 11:25:58;;;;;;;1.00;0.80;;;15.10;99.90;;;;;;5065138;28;20497;-67
2023/05/10 11:28:26;;;;;;;0.90;0.80;;;15.10;99.90;;;;;;5040783;28;20515;-68
2023/05/10 11:30:54;;;;;;;3.20;1.23;;;15.10;99.90;;;;;;5046088;28;21047;-68
2023/05/10 11:33:21;;;;;;;1.10;0.93;;;15.10;99.90;;;;;;5032979;28;20804;-68
2023/05/10 11:35:48;;;;;;;1.10;1.00;;;15.20;99.90;;;;;;5036202;28;20510;-69
2023/05/10 11:38:16;;;;;;;1.23;1.00;;;15.30;99.90;;;;;;5036415;28;20463;-68
2023/05/10 11:40:45;;;;;;;0.93;0.83;;;15.30;99.90;;;;;;5034285;28;20862;-67
2023/05/10 11:43:12;;;;;;;1.63;0.90;;;15.30;99.90;;;;;;5041580;28;20459;-69
2023/05/10 11:45:40;;;;;;;1.00;0.83;;;15.20;99.90;;;;;;5042919;28;20463;-69
2023/05/10 11:48:08;;;;;;;1.03;0.90;;;15.10;99.90;;;;;;5037353;28;20498;-69
2023/05/10 11:50:35;;;;;;;1.37;1.13;;;15.20;99.90;;;;;;5041638;28;20487;-69
2023/05/10 11:53:02;;;;;;;1.17;1.07;;;15.20;99.90;;;;;;5037978;28;20465;-70
2023/05/10 11:55:31;;;;;;;1.00;0.90;;;15.40;99.90;;;;;;5038279;28;20860;-67
2023/05/10 11:58:02;;;;;;;1.53;1.00;;;15.60;99.90;;;;;;5042753;28;20465;-70
2023/05/10 12:00:31;;;;;;;1.30;0.93;;;15.90;99.90;;;;;;5043791;28;20520;-69
2023/05/10 12:02:58;;;;;;;2.07;1.10;;;16.20;99.90;;;;;;5031880;28;20481;-70
2023/05/10 12:05:26;;;;;;;1.50;1.00;;;16.50;99.90;;;;;;5047730;28;21026;-70
2023/05/10 12:07:53;;;;;;;3.10;1.00;;;16.90;99.90;;;;;;5049300;28;20483;-70
2023/05/10 12:10:27;;;;;;;1.67;0.80;;;17.40;99.90;;;;;;5043855;28;20951;-69
2023/05/10 12:12:54;;;;;;;1.00;0.90;;;17.80;99.90;;;;;;5046626;28;20959;-69
2023/05/10 12:15:23;;;;;;;1.67;0.97;;;17.90;99.90;;;;;;5031390;28;20966;-69
2023/05/10 12:17:51;;;;;;;0.80;0.73;;;17.80;99.90;;;;;;5037767;28;20457;-68
2023/05/10 12:20:20;;;;;;;1.10;0.87;;;17.50;99.90;;;;;;5039856;28;20461;-67
2023/05/10 12:22:50;;;;;;;1.90;1.10;;;17.20;99.90;;;;;;5037213;28;20498;-68
2023/05/10 12:25:17;;;;;;;1.10;1.00;;;17.10;99.90;;;;;;5031458;28;20468;-68
2023/05/10 12:27:50;;;;;;;1.20;1.10;;;17.10;99.90;;;;;;5108726;23;20531;-71
2023/05/10 12:30:23;;;;;;;1.20;1.00;;;17.10;99.90;;;;;;5044992;28;20486;-71
2023/05/10 12:32:50;;;;;;;1.20;0.90;;;17.20;99.90;;;;;;5050071;28;20464;-69
2023/05/10 12:35:20;;;;;;;3.83;1.43;;;17.10;99.90;;;;;;5051760;28;20463;-69
2023/05/10 12:37:48;;;;;;;1.77;0.87;;;17.00;99.90;;;;;;5032250;28;20464;-71
2023/05/10 12:40:15;;;;;;;1.83;0.80;;;16.80;99.90;;;;;;5034333;28;20806;-72
2023/05/10 12:42:44;;;;;;;1.40;1.07;;;16.60;99.90;;;;;;5032599;28;20472;-69
2023/05/10 12:45:12;;;;;;;2.53;1.20;;;16.30;99.90;;;;;;5032106;28;20456;-72
2023/05/10 12:47:40;;;;;;;2.20;1.10;;;16.10;99.90;;;;;;5032289;28;21057;-72
2023/05/10 12:50:08;;;;;;;1.67;1.37;;;16.00;99.90;;;;;;5031950;28;20468;-71
2023/05/10 12:52:34;;;;;;;2.80;1.10;;;15.80;99.90;;;;;;5030390;28;20464;-70
2023/05/10 12:55:02;;;;;;;1.67;1.20;;;15.70;99.90;;;;;;5030641;28;20464;-71
2023/05/10 12:57:30;;;;;;;0.97;0.87;;;15.70;99.90;;;;;;5030750;28;21187;-69
2023/05/10 12:59:57;;;;;;;1.00;0.90;;;15.70;99.90;;;;;;5035163;28;20456;-68